Startpagina
METAR-TAF:

METAR-TAF

Vliegvelden :

Aéroport de Paris-Charles de Gaulle

Parijs-Charles De Gaulle, Frankrijk

breedte: 49-01N, lengte: 002-32E, hoogte: 118 m

Actueel weer

Dit bericht is 36 minuten geleden gemaakt, om 21:30 UTC
Wind 3 kt uit het noorden
Temperatuur 18°C
Vochtigheid 73%
Druk 1024 hPa
Zicht 10 km of meer
geen wolken onder 1500 m en geen cumulonimbus

METAR: LFPG 182130Z 01003KT CAVOK 18/13 Q1024 NOSIG

Tijdstip: 00:06 (22:06 UTC)

Verwachting

Dit bericht is 5 uur en het 6 minuten geleden gemaakt, om 17:00 UTC
Verwachting geldig van 18 om 18 UTC tot 19 om 24 UTC
Wind 10 kt uit het noordwesten
Zicht 10 km of meer
geen wolken onder 1500 m en geen cumulonimbus
Tijdelijke
van 19 om 03 UTC tot 19 om 09 UTC
Wind 2 kt uit variabele richting
Tijdelijke
van 19 om 09 UTC tot 19 om 11 UTC
Gebroken wolken op 2500 ft

TAF: LFPG 181700Z 1818/1924 32010KT CAVOK TX28/1915Z TN14/1805Z TEMPO 1903/1909 VRB02KT TEMPO 1909/1911 BKN025

Waarnemingen en weersverwachtingen van meer dan 4000 vliegvelden (METAR en TAF).

De beschikbare stations zijn de gele en rode punten op de kaart.

Ga met uw muis naar het station om de naam te zien.

Klik dan om waarnemingen en weersverwachtingen te zien.

kaart wijzigen: klik op de groene knoppen met een zwart kruis om in te zoomen, op de groene knop met een streepje om uit te zoomen of op de groene pijlen voor aangrenzende kaarten.


METAR-TAF: